sensor_id;sensor_type;location;lat;lon;timestamp;P1;durP1;ratioP1;P2;durP2;ratioP2
13185;SDS011;6658;53.080;7.428;2023-06-22T00:01:27;25.33;;;23.03;;
13185;SDS011;6658;53.080;7.428;2023-06-22T00:03:53;24.33;;;22.10;;
13185;SDS011;6658;53.080;7.428;2023-06-22T00:06:19;25.03;;;22.63;;
13185;SDS011;6658;53.080;7.428;2023-06-22T00:08:45;26.73;;;24.33;;
13185;SDS011;6658;53.080;7.428;2023-06-22T00:11:10;24.63;;;22.37;;
13185;SDS011;6658;53.080;7.428;2023-06-22T00:13:37;26.23;;;23.73;;
13185;SDS011;6658;53.080;7.428;2023-06-22T00:16:03;25.27;;;22.70;;
13185;SDS011;6658;53.080;7.428;2023-06-22T00:18:29;23.80;;;21.70;;
13185;SDS011;6658;53.080;7.428;2023-06-22T00:20:55;24.73;;;22.57;;
13185;SDS011;6658;53.080;7.428;2023-06-22T00:23:24;24.47;;;22.23;;
13185;SDS011;6658;53.080;7.428;2023-06-22T00:25:50;26.27;;;23.97;;
13185;SDS011;6658;53.080;7.428;2023-06-22T00:28:16;25.77;;;23.27;;
13185;SDS011;6658;53.080;7.428;2023-06-22T00:30:41;25.07;;;22.77;;
13185;SDS011;6658;53.080;7.428;2023-06-22T00:33:07;22.77;;;20.77;;
13185;SDS011;6658;53.080;7.428;2023-06-22T00:35:33;23.67;;;21.57;;
13185;SDS011;6658;53.080;7.428;2023-06-22T00:37:59;23.53;;;21.47;;
13185;SDS011;6658;53.080;7.428;2023-06-22T00:40:26;22.63;;;20.47;;
13185;SDS011;6658;53.080;7.428;2023-06-22T00:42:53;22.97;;;20.87;;
13185;SDS011;6658;53.080;7.428;2023-06-22T00:45:19;23.53;;;21.37;;
13185;SDS011;6658;53.080;7.428;2023-06-22T00:47:46;22.73;;;20.83;;
13185;SDS011;6658;53.080;7.428;2023-06-22T00:50:13;23.67;;;21.50;;
13185;SDS011;6658;53.080;7.428;2023-06-22T00:52:48;23.50;;;21.40;;
13185;SDS011;6658;53.080;7.428;2023-06-22T00:55:17;23.73;;;21.63;;
13185;SDS011;6658;53.080;7.428;2023-06-22T00:57:46;25.30;;;23.00;;
13185;SDS011;6658;53.080;7.428;2023-06-22T01:00:15;25.30;;;23.10;;
13185;SDS011;6658;53.080;7.428;2023-06-22T01:02:45;24.20;;;22.07;;
13185;SDS011;6658;53.080;7.428;2023-06-22T01:05:14;25.40;;;23.17;;
13185;SDS011;6658;53.080;7.428;2023-06-22T01:07:47;25.83;;;23.53;;
13185;SDS011;6658;53.080;7.428;2023-06-22T01:10:25;25.13;;;22.73;;
13185;SDS011;6658;53.080;7.428;2023-06-22T01:12:53;25.87;;;23.57;;
13185;SDS011;6658;53.080;7.428;2023-06-22T01:15:25;24.17;;;21.77;;
13185;SDS011;6658;53.080;7.428;2023-06-22T01:17:58;24.43;;;22.23;;
13185;SDS011;6658;53.080;7.428;2023-06-22T01:20:27;24.27;;;21.90;;
13185;SDS011;6658;53.080;7.428;2023-06-22T01:25:45;25.53;;;23.23;;
13185;SDS011;6658;53.080;7.428;2023-06-22T01:31:18;25.00;;;22.73;;
13185;SDS011;6658;53.080;7.428;2023-06-22T01:33:50;24.63;;;22.40;;
13185;SDS011;6658;53.080;7.428;2023-06-22T01:36:19;25.37;;;23.13;;
13185;SDS011;6658;53.080;7.428;2023-06-22T01:38:46;24.33;;;22.13;;
13185;SDS011;6658;53.080;7.428;2023-06-22T01:41:13;26.50;;;24.17;;
13185;SDS011;6658;53.080;7.428;2023-06-22T01:43:39;27.13;;;24.63;;
13185;SDS011;6658;53.080;7.428;2023-06-22T01:46:06;25.10;;;22.90;;
13185;SDS011;6658;53.080;7.428;2023-06-22T01:48:33;26.13;;;23.83;;
13185;SDS011;6658;53.080;7.428;2023-06-22T01:50:59;26.37;;;23.97;;
13185;SDS011;6658;53.080;7.428;2023-06-22T01:53:25;26.40;;;24.10;;
13185;SDS011;6658;53.080;7.428;2023-06-22T01:55:51;26.70;;;24.13;;
13185;SDS011;6658;53.080;7.428;2023-06-22T01:58:17;27.33;;;24.93;;
13185;SDS011;6658;53.080;7.428;2023-06-22T02:00:49;28.10;;;25.33;;
13185;SDS011;6658;53.080;7.428;2023-06-22T02:03:26;26.30;;;23.90;;
13185;SDS011;6658;53.080;7.428;2023-06-22T02:06:03;26.33;;;24.00;;
13185;SDS011;6658;53.080;7.428;2023-06-22T02:08:34;26.63;;;24.27;;
13185;SDS011;6658;53.080;7.428;2023-06-22T02:11:07;28.13;;;25.47;;
13185;SDS011;6658;53.080;7.428;2023-06-22T02:13:36;25.63;;;23.27;;
13185;SDS011;6658;53.080;7.428;2023-06-22T02:16:03;28.07;;;25.37;;
13185;SDS011;6658;53.080;7.428;2023-06-22T02:18:29;30.37;;;27.53;;
13185;SDS011;6658;53.080;7.428;2023-06-22T02:20:55;27.80;;;25.20;;
13185;SDS011;6658;53.080;7.428;2023-06-22T02:23:20;27.97;;;25.37;;
13185;SDS011;6658;53.080;7.428;2023-06-22T02:25:46;28.37;;;25.87;;
13185;SDS011;6658;53.080;7.428;2023-06-22T02:28:12;28.93;;;26.27;;
13185;SDS011;6658;53.080;7.428;2023-06-22T02:30:37;30.00;;;27.10;;
13185;SDS011;6658;53.080;7.428;2023-06-22T02:33:03;28.43;;;25.77;;
13185;SDS011;6658;53.080;7.428;2023-06-22T02:35:29;28.00;;;25.40;;
13185;SDS011;6658;53.080;7.428;2023-06-22T02:38:01;29.63;;;26.83;;
13185;SDS011;6658;53.080;7.428;2023-06-22T02:40:28;29.33;;;26.53;;
13185;SDS011;6658;53.080;7.428;2023-06-22T02:42:54;29.93;;;27.23;;
13185;SDS011;6658;53.080;7.428;2023-06-22T02:45:23;31.47;;;28.60;;
13185;SDS011;6658;53.080;7.428;2023-06-22T02:47:48;30.43;;;27.50;;
13185;SDS011;6658;53.080;7.428;2023-06-22T02:50:14;29.77;;;26.93;;
13185;SDS011;6658;53.080;7.428;2023-06-22T02:52:40;31.37;;;28.37;;
13185;SDS011;6658;53.080;7.428;2023-06-22T02:55:06;30.47;;;27.47;;
13185;SDS011;6658;53.080;7.428;2023-06-22T02:57:35;31.30;;;28.40;;
13185;SDS011;6658;53.080;7.428;2023-06-22T03:00:02;30.17;;;27.27;;
13185;SDS011;6658;53.080;7.428;2023-06-22T03:02:40;31.77;;;28.73;;
13185;SDS011;6658;53.080;7.428;2023-06-22T03:05:05;33.00;;;29.60;;
13185;SDS011;6658;53.080;7.428;2023-06-22T03:07:31;30.67;;;27.77;;
13185;SDS011;6658;53.080;7.428;2023-06-22T03:09:57;34.47;;;31.23;;
13185;SDS011;6658;53.080;7.428;2023-06-22T03:12:23;34.80;;;31.37;;
13185;SDS011;6658;53.080;7.428;2023-06-22T03:14:48;33.93;;;30.73;;
13185;SDS011;6658;53.080;7.428;2023-06-22T03:17:14;34.47;;;31.10;;
13185;SDS011;6658;53.080;7.428;2023-06-22T03:19:39;32.83;;;29.67;;
13185;SDS011;6658;53.080;7.428;2023-06-22T03:22:05;32.37;;;29.37;;
13185;SDS011;6658;53.080;7.428;2023-06-22T03:24:32;32.77;;;29.67;;
13185;SDS011;6658;53.080;7.428;2023-06-22T03:26:59;32.13;;;29.03;;
13185;SDS011;6658;53.080;7.428;2023-06-22T03:29:25;33.73;;;30.40;;
13185;SDS011;6658;53.080;7.428;2023-06-22T03:31:51;34.30;;;31.07;;
13185;SDS011;6658;53.080;7.428;2023-06-22T03:34:16;33.47;;;30.17;;
13185;SDS011;6658;53.080;7.428;2023-06-22T03:36:42;34.80;;;31.57;;
13185;SDS011;6658;53.080;7.428;2023-06-22T03:39:10;32.83;;;29.80;;
13185;SDS011;6658;53.080;7.428;2023-06-22T03:41:35;35.93;;;32.43;;
13185;SDS011;6658;53.080;7.428;2023-06-22T03:44:01;32.43;;;29.27;;
13185;SDS011;6658;53.080;7.428;2023-06-22T03:46:27;35.73;;;32.37;;
13185;SDS011;6658;53.080;7.428;2023-06-22T03:48:53;36.07;;;32.67;;
13185;SDS011;6658;53.080;7.428;2023-06-22T03:51:18;35.97;;;32.47;;
13185;SDS011;6658;53.080;7.428;2023-06-22T03:53:44;34.20;;;31.03;;
13185;SDS011;6658;53.080;7.428;2023-06-22T03:56:13;33.50;;;30.40;;
13185;SDS011;6658;53.080;7.428;2023-06-22T03:58:45;32.10;;;29.20;;
13185;SDS011;6658;53.080;7.428;2023-06-22T04:01:11;32.43;;;29.53;;
13185;SDS011;6658;53.080;7.428;2023-06-22T04:03:37;31.33;;;28.43;;
13185;SDS011;6658;53.080;7.428;2023-06-22T04:06:03;31.60;;;28.70;;
13185;SDS011;6658;53.080;7.428;2023-06-22T04:08:29;30.93;;;28.17;;
13185;SDS011;6658;53.080;7.428;2023-06-22T04:10:55;30.43;;;27.67;;
13185;SDS011;6658;53.080;7.428;2023-06-22T04:13:21;30.53;;;27.83;;
13185;SDS011;6658;53.080;7.428;2023-06-22T04:15:47;28.53;;;26.03;;
13185;SDS011;6658;53.080;7.428;2023-06-22T04:18:13;29.10;;;26.37;;
13185;SDS011;6658;53.080;7.428;2023-06-22T04:20:38;29.50;;;26.90;;
13185;SDS011;6658;53.080;7.428;2023-06-22T04:23:04;28.67;;;26.07;;
13185;SDS011;6658;53.080;7.428;2023-06-22T04:25:30;27.60;;;25.20;;
13185;SDS011;6658;53.080;7.428;2023-06-22T04:27:55;28.13;;;25.63;;
13185;SDS011;6658;53.080;7.428;2023-06-22T04:30:21;27.67;;;25.27;;
13185;SDS011;6658;53.080;7.428;2023-06-22T04:32:47;26.20;;;24.00;;
13185;SDS011;6658;53.080;7.428;2023-06-22T04:35:23;25.30;;;23.20;;
13185;SDS011;6658;53.080;7.428;2023-06-22T04:37:49;25.83;;;23.67;;
13185;SDS011;6658;53.080;7.428;2023-06-22T04:40:15;24.40;;;22.30;;
13185;SDS011;6658;53.080;7.428;2023-06-22T04:42:41;23.13;;;21.23;;
13185;SDS011;6658;53.080;7.428;2023-06-22T04:45:17;24.23;;;22.13;;
13185;SDS011;6658;53.080;7.428;2023-06-22T04:47:43;22.37;;;20.47;;
13185;SDS011;6658;53.080;7.428;2023-06-22T04:50:10;21.60;;;19.83;;
13185;SDS011;6658;53.080;7.428;2023-06-22T04:52:37;20.03;;;18.43;;
13185;SDS011;6658;53.080;7.428;2023-06-22T04:55:03;19.47;;;17.87;;
13185;SDS011;6658;53.080;7.428;2023-06-22T04:57:29;20.00;;;18.30;;
13185;SDS011;6658;53.080;7.428;2023-06-22T05:00:01;18.17;;;16.60;;
13185;SDS011;6658;53.080;7.428;2023-06-22T05:02:36;17.53;;;16.03;;
13185;SDS011;6658;53.080;7.428;2023-06-22T05:05:02;16.93;;;15.53;;
13185;SDS011;6658;53.080;7.428;2023-06-22T05:07:34;17.77;;;16.27;;
13185;SDS011;6658;53.080;7.428;2023-06-22T05:10:01;16.80;;;15.40;;
13185;SDS011;6658;53.080;7.428;2023-06-22T05:12:28;16.40;;;15.00;;
13185;SDS011;6658;53.080;7.428;2023-06-22T05:14:55;15.37;;;14.17;;
13185;SDS011;6658;53.080;7.428;2023-06-22T05:17:20;14.40;;;13.20;;
13185;SDS011;6658;53.080;7.428;2023-06-22T05:19:46;14.00;;;12.80;;
13185;SDS011;6658;53.080;7.428;2023-06-22T05:22:16;13.30;;;12.30;;
13185;SDS011;6658;53.080;7.428;2023-06-22T05:24:42;12.80;;;11.80;;
13185;SDS011;6658;53.080;7.428;2023-06-22T05:27:08;13.13;;;12.03;;
13185;SDS011;6658;53.080;7.428;2023-06-22T05:29:36;12.70;;;11.70;;
13185;SDS011;6658;53.080;7.428;2023-06-22T05:32:02;12.13;;;11.03;;
13185;SDS011;6658;53.080;7.428;2023-06-22T05:34:28;11.97;;;10.97;;
13185;SDS011;6658;53.080;7.428;2023-06-22T05:36:54;12.07;;;11.03;;
13185;SDS011;6658;53.080;7.428;2023-06-22T05:39:20;10.87;;;9.97;;
13185;SDS011;6658;53.080;7.428;2023-06-22T05:41:46;10.47;;;9.67;;
13185;SDS011;6658;53.080;7.428;2023-06-22T05:44:11;11.87;;;10.87;;
13185;SDS011;6658;53.080;7.428;2023-06-22T05:46:41;11.40;;;10.40;;
13185;SDS011;6658;53.080;7.428;2023-06-22T05:49:12;11.20;;;10.30;;
13185;SDS011;6658;53.080;7.428;2023-06-22T05:51:38;10.60;;;9.70;;
13185;SDS011;6658;53.080;7.428;2023-06-22T05:54:04;11.87;;;10.87;;
13185;SDS011;6658;53.080;7.428;2023-06-22T05:56:30;11.87;;;10.97;;
13185;SDS011;6658;53.080;7.428;2023-06-22T05:58:56;10.93;;;10.13;;
13185;SDS011;6658;53.080;7.428;2023-06-22T06:01:22;10.43;;;9.67;;
13185;SDS011;6658;53.080;7.428;2023-06-22T06:03:47;11.50;;;10.63;;
13185;SDS011;6658;53.080;7.428;2023-06-22T06:06:15;11.70;;;10.80;;
13185;SDS011;6658;53.080;7.428;2023-06-22T06:08:41;10.17;;;9.27;;
13185;SDS011;6658;53.080;7.428;2023-06-22T06:11:07;11.53;;;10.63;;
13185;SDS011;6658;53.080;7.428;2023-06-22T06:13:32;11.10;;;10.20;;
13185;SDS011;6658;53.080;7.428;2023-06-22T06:15:58;10.97;;;10.07;;
13185;SDS011;6658;53.080;7.428;2023-06-22T06:18:24;10.73;;;9.93;;
13185;SDS011;6658;53.080;7.428;2023-06-22T06:20:50;10.23;;;9.33;;
13185;SDS011;6658;53.080;7.428;2023-06-22T06:23:15;10.57;;;9.77;;
13185;SDS011;6658;53.080;7.428;2023-06-22T06:25:41;9.70;;;8.90;;
13185;SDS011;6658;53.080;7.428;2023-06-22T06:28:07;10.23;;;9.33;;
13185;SDS011;6658;53.080;7.428;2023-06-22T06:30:33;9.67;;;8.87;;
13185;SDS011;6658;53.080;7.428;2023-06-22T06:32:58;10.00;;;9.20;;
13185;SDS011;6658;53.080;7.428;2023-06-22T06:35:24;9.30;;;8.60;;
13185;SDS011;6658;53.080;7.428;2023-06-22T06:37:50;9.63;;;8.83;;
13185;SDS011;6658;53.080;7.428;2023-06-22T06:40:17;8.70;;;8.00;;
13185;SDS011;6658;53.080;7.428;2023-06-22T06:42:44;9.27;;;8.57;;
13185;SDS011;6658;53.080;7.428;2023-06-22T06:45:15;9.07;;;8.30;;
13185;SDS011;6658;53.080;7.428;2023-06-22T06:47:47;8.38;;;7.68;;
13185;SDS011;6658;53.080;7.428;2023-06-22T06:50:13;8.48;;;7.78;;
13185;SDS011;6658;53.080;7.428;2023-06-22T06:52:39;8.67;;;7.97;;
13185;SDS011;6658;53.080;7.428;2023-06-22T06:55:05;8.35;;;7.75;;
13185;SDS011;6658;53.080;7.428;2023-06-22T06:57:35;8.20;;;7.57;;
13185;SDS011;6658;53.080;7.428;2023-06-22T07:00:02;8.60;;;7.90;;
13185;SDS011;6658;53.080;7.428;2023-06-22T07:02:34;8.93;;;8.13;;
13185;SDS011;6658;53.080;7.428;2023-06-22T07:05:00;7.90;;;7.20;;
13185;SDS011;6658;53.080;7.428;2023-06-22T07:07:29;8.13;;;7.45;;
13185;SDS011;6658;53.080;7.428;2023-06-22T07:09:55;9.23;;;7.72;;
13185;SDS011;6658;53.080;7.428;2023-06-22T07:12:21;7.63;;;7.03;;
13185;SDS011;6658;53.080;7.428;2023-06-22T07:14:46;8.27;;;7.57;;
13185;SDS011;6658;53.080;7.428;2023-06-22T07:17:12;8.93;;;7.93;;
13185;SDS011;6658;53.080;7.428;2023-06-22T07:19:38;8.02;;;7.30;;
13185;SDS011;6658;53.080;7.428;2023-06-22T07:22:04;7.78;;;7.18;;
13185;SDS011;6658;53.080;7.428;2023-06-22T07:24:29;7.78;;;7.10;;
13185;SDS011;6658;53.080;7.428;2023-06-22T07:26:55;8.23;;;7.53;;
13185;SDS011;6658;53.080;7.428;2023-06-22T07:29:22;7.78;;;6.95;;
13185;SDS011;6658;53.080;7.428;2023-06-22T07:31:49;7.03;;;6.43;;
13185;SDS011;6658;53.080;7.428;2023-06-22T07:34:16;6.78;;;6.18;;
13185;SDS011;6658;53.080;7.428;2023-06-22T07:36:43;6.47;;;5.97;;
13185;SDS011;6658;53.080;7.428;2023-06-22T07:39:09;7.25;;;6.65;;
13185;SDS011;6658;53.080;7.428;2023-06-22T07:41:35;6.70;;;6.20;;
13185;SDS011;6658;53.080;7.428;2023-06-22T07:44:01;6.55;;;6.05;;
13185;SDS011;6658;53.080;7.428;2023-06-22T07:46:28;7.10;;;6.50;;
13185;SDS011;6658;53.080;7.428;2023-06-22T07:48:55;7.25;;;6.65;;
13185;SDS011;6658;53.080;7.428;2023-06-22T07:51:22;6.60;;;6.00;;
13185;SDS011;6658;53.080;7.428;2023-06-22T07:53:48;6.35;;;5.75;;
13185;SDS011;6658;53.080;7.428;2023-06-22T07:56:14;6.78;;;6.18;;
13185;SDS011;6658;53.080;7.428;2023-06-22T07:58:44;7.68;;;6.95;;
13185;SDS011;6658;53.080;7.428;2023-06-22T08:01:11;7.28;;;6.68;;
13185;SDS011;6658;53.080;7.428;2023-06-22T08:03:37;7.43;;;6.82;;
13185;SDS011;6658;53.080;7.428;2023-06-22T08:06:03;8.95;;;6.50;;
13185;SDS011;6658;53.080;7.428;2023-06-22T08:08:29;6.95;;;6.35;;
13185;SDS011;6658;53.080;7.428;2023-06-22T08:10:54;7.35;;;6.60;;
13185;SDS011;6658;53.080;7.428;2023-06-22T08:13:20;7.63;;;6.93;;
13185;SDS011;6658;53.080;7.428;2023-06-22T08:15:46;6.78;;;6.28;;
13185;SDS011;6658;53.080;7.428;2023-06-22T08:18:11;7.68;;;6.97;;
13185;SDS011;6658;53.080;7.428;2023-06-22T08:20:37;7.20;;;6.60;;
13185;SDS011;6658;53.080;7.428;2023-06-22T08:23:03;8.32;;;7.50;;
13185;SDS011;6658;53.080;7.428;2023-06-22T08:25:34;7.90;;;7.20;;
13185;SDS011;6658;53.080;7.428;2023-06-22T08:28:00;8.77;;;8.00;;
13185;SDS011;6658;53.080;7.428;2023-06-22T08:30:26;8.85;;;7.53;;
13185;SDS011;6658;53.080;7.428;2023-06-22T08:32:52;7.57;;;6.95;;
13185;SDS011;6658;53.080;7.428;2023-06-22T08:35:19;7.32;;;6.22;;
13185;SDS011;6658;53.080;7.428;2023-06-22T08:37:45;7.40;;;6.72;;
13185;SDS011;6658;53.080;7.428;2023-06-22T08:40:17;8.05;;;7.35;;
13185;SDS011;6658;53.080;7.428;2023-06-22T08:42:45;8.85;;;8.00;;
13185;SDS011;6658;53.080;7.428;2023-06-22T08:45:11;8.70;;;7.80;;
13185;SDS011;6658;53.080;7.428;2023-06-22T08:47:38;8.73;;;7.93;;
13185;SDS011;6658;53.080;7.428;2023-06-22T08:50:10;7.63;;;7.03;;
13185;SDS011;6658;53.080;7.428;2023-06-22T08:52:37;7.97;;;7.28;;
13185;SDS011;6658;53.080;7.428;2023-06-22T08:55:06;8.50;;;7.80;;
13185;SDS011;6658;53.080;7.428;2023-06-22T08:57:33;9.07;;;8.13;;
13185;SDS011;6658;53.080;7.428;2023-06-22T08:59:59;9.10;;;8.30;;
13185;SDS011;6658;53.080;7.428;2023-06-22T09:02:28;9.80;;;8.18;;
13185;SDS011;6658;53.080;7.428;2023-06-22T09:04:56;8.00;;;7.40;;
13185;SDS011;6658;53.080;7.428;2023-06-22T09:07:22;8.00;;;7.40;;
13185;SDS011;6658;53.080;7.428;2023-06-22T09:09:49;8.25;;;7.60;;
13185;SDS011;6658;53.080;7.428;2023-06-22T09:12:16;7.43;;;6.82;;
13185;SDS011;6658;53.080;7.428;2023-06-22T09:14:45;8.20;;;7.50;;
13185;SDS011;6658;53.080;7.428;2023-06-22T09:17:12;8.25;;;7.55;;
13185;SDS011;6658;53.080;7.428;2023-06-22T09:19:38;8.35;;;7.65;;
13185;SDS011;6658;53.080;7.428;2023-06-22T09:22:04;8.27;;;7.57;;
13185;SDS011;6658;53.080;7.428;2023-06-22T09:24:31;7.55;;;6.80;;
13185;SDS011;6658;53.080;7.428;2023-06-22T09:26:57;8.07;;;7.28;;
13185;SDS011;6658;53.080;7.428;2023-06-22T09:29:23;7.20;;;6.55;;
13185;SDS011;6658;53.080;7.428;2023-06-22T09:31:48;7.38;;;6.68;;
13185;SDS011;6658;53.080;7.428;2023-06-22T09:34:14;7.47;;;6.88;;
13185;SDS011;6658;53.080;7.428;2023-06-22T09:36:41;7.75;;;7.03;;
13185;SDS011;6658;53.080;7.428;2023-06-22T09:39:06;7.75;;;7.05;;
13185;SDS011;6658;53.080;7.428;2023-06-22T09:41:32;7.47;;;6.78;;
13185;SDS011;6658;53.080;7.428;2023-06-22T09:43:57;8.45;;;7.75;;
13185;SDS011;6658;53.080;7.428;2023-06-22T09:46:23;7.72;;;6.93;;
13185;SDS011;6658;53.080;7.428;2023-06-22T09:48:52;6.97;;;6.38;;
13185;SDS011;6658;53.080;7.428;2023-06-22T09:51:18;8.50;;;7.70;;
13185;SDS011;6658;53.080;7.428;2023-06-22T09:53:46;7.10;;;6.40;;
13185;SDS011;6658;53.080;7.428;2023-06-22T09:56:12;7.95;;;7.25;;
13185;SDS011;6658;53.080;7.428;2023-06-22T09:58:40;7.03;;;6.38;;
13185;SDS011;6658;53.080;7.428;2023-06-22T10:01:11;6.88;;;6.28;;
13185;SDS011;6658;53.080;7.428;2023-06-22T10:03:37;7.63;;;7.03;;
13185;SDS011;6658;53.080;7.428;2023-06-22T10:06:03;6.38;;;5.53;;
13185;SDS011;6658;53.080;7.428;2023-06-22T10:08:29;6.63;;;6.00;;
13185;SDS011;6658;53.080;7.428;2023-06-22T10:10:54;7.63;;;6.93;;
13185;SDS011;6658;53.080;7.428;2023-06-22T10:13:20;7.60;;;6.80;;
13185;SDS011;6658;53.080;7.428;2023-06-22T10:15:46;6.53;;;5.93;;
13185;SDS011;6658;53.080;7.428;2023-06-22T10:18:16;7.00;;;6.40;;
13185;SDS011;6658;53.080;7.428;2023-06-22T10:20:42;8.40;;;6.28;;
13185;SDS011;6658;53.080;7.428;2023-06-22T10:23:08;7.82;;;7.05;;
13185;SDS011;6658;53.080;7.428;2023-06-22T10:25:34;6.95;;;6.35;;
13185;SDS011;6658;53.080;7.428;2023-06-22T10:27:59;6.20;;;5.60;;
13185;SDS011;6658;53.080;7.428;2023-06-22T10:30:25;5.90;;;5.40;;
13185;SDS011;6658;53.080;7.428;2023-06-22T10:32:51;6.25;;;5.72;;
13185;SDS011;6658;53.080;7.428;2023-06-22T10:35:16;5.82;;;5.43;;
13185;SDS011;6658;53.080;7.428;2023-06-22T10:37:43;6.95;;;5.30;;
13185;SDS011;6658;53.080;7.428;2023-06-22T10:40:10;5.30;;;4.78;;
13185;SDS011;6658;53.080;7.428;2023-06-22T10:42:40;5.93;;;5.22;;
13185;SDS011;6658;53.080;7.428;2023-06-22T10:45:06;6.22;;;4.90;;
13185;SDS011;6658;53.080;7.428;2023-06-22T10:47:34;6.28;;;5.28;;
13185;SDS011;6658;53.080;7.428;2023-06-22T10:50:01;5.50;;;4.53;;
13185;SDS011;6658;53.080;7.428;2023-06-22T10:52:27;4.93;;;4.35;;
13185;SDS011;6658;53.080;7.428;2023-06-22T10:54:53;5.28;;;4.88;;
13185;SDS011;6658;53.080;7.428;2023-06-22T10:57:18;6.65;;;4.82;;
13185;SDS011;6658;53.080;7.428;2023-06-22T10:59:44;4.80;;;4.38;;
13185;SDS011;6658;53.080;7.428;2023-06-22T11:02:10;5.43;;;4.93;;
13185;SDS011;6658;53.080;7.428;2023-06-22T11:04:36;5.22;;;4.60;;
13185;SDS011;6658;53.080;7.428;2023-06-22T11:07:01;4.45;;;4.05;;
13185;SDS011;6658;53.080;7.428;2023-06-22T11:09:27;5.68;;;4.47;;
13185;SDS011;6658;53.080;7.428;2023-06-22T11:11:53;4.55;;;3.83;;
13185;SDS011;6658;53.080;7.428;2023-06-22T11:14:18;4.70;;;4.30;;
13185;SDS011;6658;53.080;7.428;2023-06-22T11:16:44;3.90;;;3.50;;
13185;SDS011;6658;53.080;7.428;2023-06-22T11:19:11;5.95;;;4.30;;
13185;SDS011;6658;53.080;7.428;2023-06-22T11:21:37;6.18;;;4.03;;
13185;SDS011;6658;53.080;7.428;2023-06-22T11:24:03;5.40;;;4.97;;
13185;SDS011;6658;53.080;7.428;2023-06-22T11:26:29;5.30;;;4.72;;
13185;SDS011;6658;53.080;7.428;2023-06-22T11:28:56;4.93;;;4.53;;
13185;SDS011;6658;53.080;7.428;2023-06-22T11:31:22;4.10;;;3.70;;
13185;SDS011;6658;53.080;7.428;2023-06-22T11:33:48;4.32;;;3.92;;
13185;SDS011;6658;53.080;7.428;2023-06-22T11:36:14;4.18;;;3.78;;
13185;SDS011;6658;53.080;7.428;2023-06-22T11:38:40;4.20;;;3.80;;
13185;SDS011;6658;53.080;7.428;2023-06-22T11:41:07;5.35;;;4.57;;
13185;SDS011;6658;53.080;7.428;2023-06-22T11:43:34;5.20;;;4.68;;
13185;SDS011;6658;53.080;7.428;2023-06-22T11:46:01;4.50;;;3.60;;
13185;SDS011;6658;53.080;7.428;2023-06-22T11:48:28;4.85;;;4.45;;
13185;SDS011;6658;53.080;7.428;2023-06-22T11:50:54;5.20;;;4.80;;
13185;SDS011;6658;53.080;7.428;2023-06-22T11:53:20;4.78;;;4.35;;
13185;SDS011;6658;53.080;7.428;2023-06-22T11:55:47;4.70;;;4.38;;
13185;SDS011;6658;53.080;7.428;2023-06-22T11:58:12;4.65;;;4.25;;
13185;SDS011;6658;53.080;7.428;2023-06-22T12:00:38;5.03;;;4.63;;
13185;SDS011;6658;53.080;7.428;2023-06-22T12:03:04;4.47;;;4.18;;
13185;SDS011;6658;53.080;7.428;2023-06-22T12:05:29;5.13;;;4.63;;
13185;SDS011;6658;53.080;7.428;2023-06-22T12:07:55;5.10;;;4.60;;
13185;SDS011;6658;53.080;7.428;2023-06-22T12:10:22;5.38;;;4.93;;
13185;SDS011;6658;53.080;7.428;2023-06-22T12:12:48;6.55;;;5.95;;
13185;SDS011;6658;53.080;7.428;2023-06-22T12:15:14;5.75;;;5.30;;
13185;SDS011;6658;53.080;7.428;2023-06-22T12:17:40;4.78;;;4.35;;
13185;SDS011;6658;53.080;7.428;2023-06-22T12:20:06;4.80;;;4.35;;
13185;SDS011;6658;53.080;7.428;2023-06-22T12:22:32;6.45;;;4.95;;
13185;SDS011;6658;53.080;7.428;2023-06-22T12:24:59;4.70;;;4.30;;
13185;SDS011;6658;53.080;7.428;2023-06-22T12:27:25;6.25;;;5.60;;
13185;SDS011;6658;53.080;7.428;2023-06-22T12:29:51;7.00;;;5.78;;
13185;SDS011;6658;53.080;7.428;2023-06-22T12:32:16;6.05;;;5.50;;
13185;SDS011;6658;53.080;7.428;2023-06-22T12:34:42;5.75;;;5.25;;
13185;SDS011;6658;53.080;7.428;2023-06-22T12:37:09;5.82;;;5.43;;
13185;SDS011;6658;53.080;7.428;2023-06-22T12:39:36;6.20;;;5.70;;
13185;SDS011;6658;53.080;7.428;2023-06-22T12:42:02;6.57;;;5.97;;
13185;SDS011;6658;53.080;7.428;2023-06-22T12:44:28;6.97;;;6.28;;
13185;SDS011;6658;53.080;7.428;2023-06-22T12:46:53;6.75;;;6.15;;
13185;SDS011;6658;53.080;7.428;2023-06-22T12:49:19;7.00;;;6.30;;
13185;SDS011;6658;53.080;7.428;2023-06-22T12:51:45;6.70;;;6.03;;
13185;SDS011;6658;53.080;7.428;2023-06-22T12:54:11;7.10;;;6.50;;
13185;SDS011;6658;53.080;7.428;2023-06-22T12:56:37;6.20;;;5.60;;
13185;SDS011;6658;53.080;7.428;2023-06-22T12:59:03;6.72;;;6.13;;
13185;SDS011;6658;53.080;7.428;2023-06-22T13:01:30;7.35;;;6.75;;
13185;SDS011;6658;53.080;7.428;2023-06-22T13:03:57;6.35;;;5.45;;
13185;SDS011;6658;53.080;7.428;2023-06-22T13:06:26;6.40;;;5.90;;
13185;SDS011;6658;53.080;7.428;2023-06-22T13:08:51;6.00;;;5.50;;
13185;SDS011;6658;53.080;7.428;2023-06-22T13:11:17;7.07;;;6.38;;
13185;SDS011;6658;53.080;7.428;2023-06-22T13:13:44;6.65;;;5.93;;
13185;SDS011;6658;53.080;7.428;2023-06-22T13:16:10;5.72;;;5.22;;
13185;SDS011;6658;53.080;7.428;2023-06-22T13:18:36;6.70;;;6.00;;
13185;SDS011;6658;53.080;7.428;2023-06-22T13:21:02;5.70;;;4.55;;
13185;SDS011;6658;53.080;7.428;2023-06-22T13:23:29;5.68;;;5.18;;
13185;SDS011;6658;53.080;7.428;2023-06-22T13:25:54;5.53;;;4.97;;
13185;SDS011;6658;53.080;7.428;2023-06-22T13:28:20;7.15;;;5.80;;
13185;SDS011;6658;53.080;7.428;2023-06-22T13:30:46;5.90;;;5.43;;
13185;SDS011;6658;53.080;7.428;2023-06-22T13:33:15;5.50;;;5.00;;
13185;SDS011;6658;53.080;7.428;2023-06-22T13:35:41;5.95;;;5.45;;
13185;SDS011;6658;53.080;7.428;2023-06-22T13:38:08;7.45;;;6.75;;
13185;SDS011;6658;53.080;7.428;2023-06-22T13:40:34;7.28;;;6.57;;
13185;SDS011;6658;53.080;7.428;2023-06-22T13:43:01;6.97;;;6.38;;
13185;SDS011;6658;53.080;7.428;2023-06-22T13:45:26;8.05;;;7.35;;
13185;SDS011;6658;53.080;7.428;2023-06-22T13:47:52;7.30;;;6.68;;
13185;SDS011;6658;53.080;7.428;2023-06-22T13:50:18;6.90;;;6.30;;
13185;SDS011;6658;53.080;7.428;2023-06-22T13:52:44;7.28;;;6.68;;
13185;SDS011;6658;53.080;7.428;2023-06-22T13:55:10;6.35;;;5.75;;
13185;SDS011;6658;53.080;7.428;2023-06-22T13:57:35;6.88;;;6.20;;
13185;SDS011;6658;53.080;7.428;2023-06-22T14:00:02;6.57;;;5.93;;
13185;SDS011;6658;53.080;7.428;2023-06-22T14:02:30;6.63;;;6.03;;
13185;SDS011;6658;53.080;7.428;2023-06-22T14:04:56;6.97;;;6.28;;
13185;SDS011;6658;53.080;7.428;2023-06-22T14:07:21;7.03;;;6.43;;
13185;SDS011;6658;53.080;7.428;2023-06-22T14:09:49;7.28;;;6.28;;
13185;SDS011;6658;53.080;7.428;2023-06-22T14:12:15;6.30;;;5.70;;
13185;SDS011;6658;53.080;7.428;2023-06-22T14:14:42;6.88;;;5.95;;
13185;SDS011;6658;53.080;7.428;2023-06-22T14:17:08;6.20;;;5.70;;
13185;SDS011;6658;53.080;7.428;2023-06-22T14:19:34;6.20;;;5.63;;
13185;SDS011;6658;53.080;7.428;2023-06-22T14:22:00;5.97;;;5.43;;
13185;SDS011;6658;53.080;7.428;2023-06-22T14:24:26;6.07;;;5.50;;
13185;SDS011;6658;53.080;7.428;2023-06-22T14:26:52;5.70;;;5.20;;
13185;SDS011;6658;53.080;7.428;2023-06-22T14:29:19;6.70;;;6.10;;
13185;SDS011;6658;53.080;7.428;2023-06-22T14:31:44;6.18;;;5.60;;
13185;SDS011;6658;53.080;7.428;2023-06-22T14:34:14;6.57;;;5.47;;
13185;SDS011;6658;53.080;7.428;2023-06-22T14:36:40;6.63;;;5.90;;
13185;SDS011;6658;53.080;7.428;2023-06-22T14:39:07;6.65;;;4.97;;
13185;SDS011;6658;53.080;7.428;2023-06-22T14:41:33;5.55;;;5.05;;
13185;SDS011;6658;53.080;7.428;2023-06-22T14:43:59;5.68;;;5.10;;
13185;SDS011;6658;53.080;7.428;2023-06-22T14:46:25;4.97;;;4.57;;
13185;SDS011;6658;53.080;7.428;2023-06-22T14:48:50;6.07;;;5.18;;
13185;SDS011;6658;53.080;7.428;2023-06-22T14:51:16;5.68;;;4.75;;
13185;SDS011;6658;53.080;7.428;2023-06-22T14:53:43;5.88;;;5.38;;